sensor_id;sensor_type;location;lat;lon;timestamp;P1;durP1;ratioP1;P2;durP2;ratioP2
11655;SDS011;5884;43.618;1.438;2023-05-27T00:02:20;11.80;;;6.50;;
11655;SDS011;5884;43.618;1.438;2023-05-27T00:04:48;13.57;;;6.37;;
11655;SDS011;5884;43.618;1.438;2023-05-27T00:07:15;13.63;;;6.27;;
11655;SDS011;5884;43.618;1.438;2023-05-27T00:09:42;15.57;;;6.10;;
11655;SDS011;5884;43.618;1.438;2023-05-27T00:12:09;13.57;;;6.77;;
11655;SDS011;5884;43.618;1.438;2023-05-27T00:14:37;13.00;;;6.87;;
11655;SDS011;5884;43.618;1.438;2023-05-27T00:17:06;12.63;;;6.57;;
11655;SDS011;5884;43.618;1.438;2023-05-27T00:19:34;9.07;;;5.97;;
11655;SDS011;5884;43.618;1.438;2023-05-27T00:22:02;16.27;;;6.73;;
11655;SDS011;5884;43.618;1.438;2023-05-27T00:24:30;12.47;;;7.00;;
11655;SDS011;5884;43.618;1.438;2023-05-27T00:26:57;15.20;;;7.23;;
11655;SDS011;5884;43.618;1.438;2023-05-27T00:29:25;12.47;;;6.67;;
11655;SDS011;5884;43.618;1.438;2023-05-27T00:31:52;14.13;;;6.70;;
11655;SDS011;5884;43.618;1.438;2023-05-27T00:34:20;15.07;;;7.03;;
11655;SDS011;5884;43.618;1.438;2023-05-27T00:36:48;13.63;;;6.87;;
11655;SDS011;5884;43.618;1.438;2023-05-27T00:39:15;11.73;;;6.20;;
11655;SDS011;5884;43.618;1.438;2023-05-27T00:41:43;12.57;;;6.23;;
11655;SDS011;5884;43.618;1.438;2023-05-27T00:44:15;12.70;;;5.77;;
11655;SDS011;5884;43.618;1.438;2023-05-27T00:46:43;14.17;;;6.50;;
11655;SDS011;5884;43.618;1.438;2023-05-27T00:49:11;14.17;;;6.63;;
11655;SDS011;5884;43.618;1.438;2023-05-27T00:51:40;11.80;;;6.20;;
11655;SDS011;5884;43.618;1.438;2023-05-27T00:54:08;12.30;;;6.67;;
11655;SDS011;5884;43.618;1.438;2023-05-27T00:56:35;9.83;;;5.53;;
11655;SDS011;5884;43.618;1.438;2023-05-27T00:59:03;13.20;;;6.80;;
11655;SDS011;5884;43.618;1.438;2023-05-27T01:01:31;13.70;;;6.23;;
11655;SDS011;5884;43.618;1.438;2023-05-27T01:04:01;14.07;;;6.60;;
11655;SDS011;5884;43.618;1.438;2023-05-27T01:06:32;15.37;;;7.17;;
11655;SDS011;5884;43.618;1.438;2023-05-27T01:09:17;10.63;;;6.37;;
11655;SDS011;5884;43.618;1.438;2023-05-27T01:11:54;12.60;;;6.40;;
11655;SDS011;5884;43.618;1.438;2023-05-27T01:14:28;14.87;;;6.70;;
11655;SDS011;5884;43.618;1.438;2023-05-27T01:16:57;9.30;;;6.63;;
11655;SDS011;5884;43.618;1.438;2023-05-27T01:19:30;14.67;;;6.70;;
11655;SDS011;5884;43.618;1.438;2023-05-27T01:22:01;10.57;;;6.20;;
11655;SDS011;5884;43.618;1.438;2023-05-27T01:24:31;12.67;;;6.73;;
11655;SDS011;5884;43.618;1.438;2023-05-27T01:26:59;17.60;;;6.90;;
11655;SDS011;5884;43.618;1.438;2023-05-27T01:29:27;14.63;;;7.43;;
11655;SDS011;5884;43.618;1.438;2023-05-27T01:31:56;11.57;;;7.03;;
11655;SDS011;5884;43.618;1.438;2023-05-27T01:34:31;12.13;;;6.90;;
11655;SDS011;5884;43.618;1.438;2023-05-27T01:37:04;13.00;;;6.10;;
11655;SDS011;5884;43.618;1.438;2023-05-27T01:39:36;10.07;;;7.23;;
11655;SDS011;5884;43.618;1.438;2023-05-27T01:42:05;15.03;;;7.10;;
11655;SDS011;5884;43.618;1.438;2023-05-27T01:44:33;12.57;;;6.70;;
11655;SDS011;5884;43.618;1.438;2023-05-27T01:47:00;11.50;;;6.23;;
11655;SDS011;5884;43.618;1.438;2023-05-27T01:49:29;10.57;;;5.93;;
11655;SDS011;5884;43.618;1.438;2023-05-27T01:51:56;11.03;;;5.90;;
11655;SDS011;5884;43.618;1.438;2023-05-27T01:54:23;10.73;;;6.03;;
11655;SDS011;5884;43.618;1.438;2023-05-27T01:56:52;12.83;;;5.93;;
11655;SDS011;5884;43.618;1.438;2023-05-27T01:59:19;16.80;;;5.70;;
11655;SDS011;5884;43.618;1.438;2023-05-27T02:01:47;13.27;;;5.80;;
11655;SDS011;5884;43.618;1.438;2023-05-27T02:04:14;16.60;;;6.60;;
11655;SDS011;5884;43.618;1.438;2023-05-27T02:06:41;11.00;;;5.70;;
11655;SDS011;5884;43.618;1.438;2023-05-27T02:09:09;9.23;;;6.30;;
11655;SDS011;5884;43.618;1.438;2023-05-27T02:11:38;13.87;;;5.90;;
11655;SDS011;5884;43.618;1.438;2023-05-27T02:14:06;15.73;;;6.70;;
11655;SDS011;5884;43.618;1.438;2023-05-27T02:16:33;13.73;;;6.20;;
11655;SDS011;5884;43.618;1.438;2023-05-27T02:19:01;11.33;;;6.40;;
11655;SDS011;5884;43.618;1.438;2023-05-27T02:21:29;11.93;;;6.03;;
11655;SDS011;5884;43.618;1.438;2023-05-27T02:23:57;12.67;;;6.30;;
11655;SDS011;5884;43.618;1.438;2023-05-27T02:26:24;9.77;;;6.23;;
11655;SDS011;5884;43.618;1.438;2023-05-27T02:28:52;13.03;;;6.03;;
11655;SDS011;5884;43.618;1.438;2023-05-27T02:31:20;10.60;;;5.90;;
11655;SDS011;5884;43.618;1.438;2023-05-27T02:33:48;12.67;;;5.80;;
11655;SDS011;5884;43.618;1.438;2023-05-27T02:36:15;12.83;;;6.70;;
11655;SDS011;5884;43.618;1.438;2023-05-27T02:38:43;14.47;;;7.23;;
11655;SDS011;5884;43.618;1.438;2023-05-27T02:41:11;9.83;;;6.47;;
11655;SDS011;5884;43.618;1.438;2023-05-27T02:43:38;11.53;;;6.13;;
11655;SDS011;5884;43.618;1.438;2023-05-27T02:46:05;9.40;;;6.20;;
11655;SDS011;5884;43.618;1.438;2023-05-27T02:48:34;12.47;;;6.80;;
11655;SDS011;5884;43.618;1.438;2023-05-27T02:51:01;12.77;;;6.80;;
11655;SDS011;5884;43.618;1.438;2023-05-27T02:53:28;10.67;;;6.30;;
11655;SDS011;5884;43.618;1.438;2023-05-27T02:55:56;10.07;;;5.87;;
11655;SDS011;5884;43.618;1.438;2023-05-27T02:58:23;12.20;;;5.83;;
11655;SDS011;5884;43.618;1.438;2023-05-27T03:00:50;14.43;;;6.57;;
11655;SDS011;5884;43.618;1.438;2023-05-27T03:03:18;11.33;;;6.60;;
11655;SDS011;5884;43.618;1.438;2023-05-27T03:05:46;13.27;;;6.73;;
11655;SDS011;5884;43.618;1.438;2023-05-27T03:08:14;8.80;;;5.70;;
11655;SDS011;5884;43.618;1.438;2023-05-27T03:10:41;12.77;;;6.17;;
11655;SDS011;5884;43.618;1.438;2023-05-27T03:13:08;11.43;;;5.67;;
11655;SDS011;5884;43.618;1.438;2023-05-27T03:15:36;12.67;;;6.60;;
11655;SDS011;5884;43.618;1.438;2023-05-27T03:18:03;10.97;;;6.17;;
11655;SDS011;5884;43.618;1.438;2023-05-27T03:20:30;9.20;;;6.63;;
11655;SDS011;5884;43.618;1.438;2023-05-27T03:22:59;13.20;;;6.27;;
11655;SDS011;5884;43.618;1.438;2023-05-27T03:25:26;11.13;;;6.70;;
11655;SDS011;5884;43.618;1.438;2023-05-27T03:27:54;11.10;;;7.10;;
11655;SDS011;5884;43.618;1.438;2023-05-27T03:30:21;12.93;;;6.37;;
11655;SDS011;5884;43.618;1.438;2023-05-27T03:32:49;13.27;;;6.57;;
11655;SDS011;5884;43.618;1.438;2023-05-27T03:35:16;10.27;;;6.47;;
11655;SDS011;5884;43.618;1.438;2023-05-27T03:37:43;9.50;;;6.20;;
11655;SDS011;5884;43.618;1.438;2023-05-27T03:40:12;12.47;;;6.43;;
11655;SDS011;5884;43.618;1.438;2023-05-27T03:42:40;10.00;;;6.30;;
11655;SDS011;5884;43.618;1.438;2023-05-27T03:45:07;11.97;;;6.93;;
11655;SDS011;5884;43.618;1.438;2023-05-27T03:47:35;9.27;;;6.47;;
11655;SDS011;5884;43.618;1.438;2023-05-27T03:50:03;13.03;;;6.50;;
11655;SDS011;5884;43.618;1.438;2023-05-27T03:52:31;13.93;;;7.30;;
11655;SDS011;5884;43.618;1.438;2023-05-27T03:54:58;10.73;;;6.80;;
11655;SDS011;5884;43.618;1.438;2023-05-27T03:57:27;12.43;;;6.83;;
11655;SDS011;5884;43.618;1.438;2023-05-27T03:59:54;18.40;;;7.17;;
11655;SDS011;5884;43.618;1.438;2023-05-27T04:02:22;10.10;;;6.33;;
11655;SDS011;5884;43.618;1.438;2023-05-27T04:04:49;12.47;;;7.37;;
11655;SDS011;5884;43.618;1.438;2023-05-27T04:07:16;15.73;;;6.97;;
11655;SDS011;5884;43.618;1.438;2023-05-27T04:09:44;9.80;;;6.97;;
11655;SDS011;5884;43.618;1.438;2023-05-27T04:12:11;13.93;;;7.13;;
11655;SDS011;5884;43.618;1.438;2023-05-27T04:14:40;14.37;;;7.53;;
11655;SDS011;5884;43.618;1.438;2023-05-27T04:17:07;17.87;;;7.37;;
11655;SDS011;5884;43.618;1.438;2023-05-27T04:19:34;10.63;;;7.23;;
11655;SDS011;5884;43.618;1.438;2023-05-27T04:22:02;12.73;;;6.93;;
11655;SDS011;5884;43.618;1.438;2023-05-27T04:24:30;10.00;;;6.83;;
11655;SDS011;5884;43.618;1.438;2023-05-27T04:26:57;13.07;;;6.80;;
11655;SDS011;5884;43.618;1.438;2023-05-27T04:29:24;11.70;;;7.37;;
11655;SDS011;5884;43.618;1.438;2023-05-27T04:31:54;14.10;;;6.77;;
11655;SDS011;5884;43.618;1.438;2023-05-27T04:34:21;11.67;;;6.63;;
11655;SDS011;5884;43.618;1.438;2023-05-27T04:36:49;10.13;;;6.67;;
11655;SDS011;5884;43.618;1.438;2023-05-27T04:39:16;11.23;;;6.83;;
11655;SDS011;5884;43.618;1.438;2023-05-27T04:41:43;16.50;;;6.80;;
11655;SDS011;5884;43.618;1.438;2023-05-27T04:44:11;13.97;;;7.37;;
11655;SDS011;5884;43.618;1.438;2023-05-27T04:46:38;11.77;;;6.97;;
11655;SDS011;5884;43.618;1.438;2023-05-27T04:49:09;12.17;;;6.83;;
11655;SDS011;5884;43.618;1.438;2023-05-27T04:51:37;15.00;;;7.40;;
11655;SDS011;5884;43.618;1.438;2023-05-27T04:54:04;10.40;;;6.67;;
11655;SDS011;5884;43.618;1.438;2023-05-27T04:56:32;11.20;;;6.97;;
11655;SDS011;5884;43.618;1.438;2023-05-27T04:59:01;15.90;;;7.00;;
11655;SDS011;5884;43.618;1.438;2023-05-27T05:01:28;10.17;;;7.47;;
11655;SDS011;5884;43.618;1.438;2023-05-27T05:04:04;14.00;;;7.20;;
11655;SDS011;5884;43.618;1.438;2023-05-27T05:06:39;13.07;;;7.80;;
11655;SDS011;5884;43.618;1.438;2023-05-27T05:09:08;11.40;;;7.10;;
11655;SDS011;5884;43.618;1.438;2023-05-27T05:11:36;16.10;;;7.50;;
11655;SDS011;5884;43.618;1.438;2023-05-27T05:14:04;12.77;;;8.50;;
11655;SDS011;5884;43.618;1.438;2023-05-27T05:16:31;16.17;;;7.83;;
11655;SDS011;5884;43.618;1.438;2023-05-27T05:18:58;15.27;;;8.03;;
11655;SDS011;5884;43.618;1.438;2023-05-27T05:21:25;13.50;;;7.60;;
11655;SDS011;5884;43.618;1.438;2023-05-27T05:23:54;12.07;;;7.90;;
11655;SDS011;5884;43.618;1.438;2023-05-27T05:26:21;12.33;;;8.17;;
11655;SDS011;5884;43.618;1.438;2023-05-27T05:28:48;11.50;;;7.17;;
11655;SDS011;5884;43.618;1.438;2023-05-27T05:31:16;16.93;;;8.37;;
11655;SDS011;5884;43.618;1.438;2023-05-27T05:33:43;13.67;;;7.57;;
11655;SDS011;5884;43.618;1.438;2023-05-27T05:36:10;12.93;;;8.30;;
11655;SDS011;5884;43.618;1.438;2023-05-27T05:38:38;13.70;;;8.20;;
11655;SDS011;5884;43.618;1.438;2023-05-27T05:41:06;8.97;;;7.53;;
11655;SDS011;5884;43.618;1.438;2023-05-27T05:43:33;19.77;;;8.03;;
11655;SDS011;5884;43.618;1.438;2023-05-27T05:46:01;13.10;;;7.63;;
11655;SDS011;5884;43.618;1.438;2023-05-27T05:48:28;10.43;;;8.10;;
11655;SDS011;5884;43.618;1.438;2023-05-27T05:50:55;16.80;;;8.40;;
11655;SDS011;5884;43.618;1.438;2023-05-27T05:53:22;10.30;;;7.87;;
11655;SDS011;5884;43.618;1.438;2023-05-27T05:55:50;15.70;;;7.90;;
11655;SDS011;5884;43.618;1.438;2023-05-27T05:58:18;13.53;;;7.93;;
11655;SDS011;5884;43.618;1.438;2023-05-27T06:00:46;13.50;;;8.13;;
11655;SDS011;5884;43.618;1.438;2023-05-27T06:03:13;13.93;;;8.77;;
11655;SDS011;5884;43.618;1.438;2023-05-27T06:05:40;13.07;;;7.87;;
11655;SDS011;5884;43.618;1.438;2023-05-27T06:08:08;15.33;;;8.17;;
11655;SDS011;5884;43.618;1.438;2023-05-27T06:10:35;13.43;;;8.17;;
11655;SDS011;5884;43.618;1.438;2023-05-27T06:13:03;17.83;;;8.57;;
11655;SDS011;5884;43.618;1.438;2023-05-27T06:15:32;14.60;;;8.40;;
11655;SDS011;5884;43.618;1.438;2023-05-27T06:17:59;12.60;;;7.93;;
11655;SDS011;5884;43.618;1.438;2023-05-27T06:20:26;17.40;;;9.20;;
11655;SDS011;5884;43.618;1.438;2023-05-27T06:22:54;16.73;;;8.70;;
11655;SDS011;5884;43.618;1.438;2023-05-27T06:25:21;14.87;;;8.13;;
11655;SDS011;5884;43.618;1.438;2023-05-27T06:27:48;13.67;;;7.70;;
11655;SDS011;5884;43.618;1.438;2023-05-27T06:30:16;14.30;;;8.10;;
11655;SDS011;5884;43.618;1.438;2023-05-27T06:32:44;13.63;;;7.83;;
11655;SDS011;5884;43.618;1.438;2023-05-27T06:35:12;13.83;;;7.63;;
11655;SDS011;5884;43.618;1.438;2023-05-27T06:37:39;13.47;;;7.47;;
11655;SDS011;5884;43.618;1.438;2023-05-27T06:40:07;15.93;;;8.23;;
11655;SDS011;5884;43.618;1.438;2023-05-27T06:42:36;13.53;;;7.83;;
11655;SDS011;5884;43.618;1.438;2023-05-27T06:45:04;13.30;;;8.20;;
11655;SDS011;5884;43.618;1.438;2023-05-27T06:47:32;12.40;;;7.20;;
11655;SDS011;5884;43.618;1.438;2023-05-27T06:50:01;14.07;;;6.83;;
11655;SDS011;5884;43.618;1.438;2023-05-27T06:52:28;12.87;;;8.07;;
11655;SDS011;5884;43.618;1.438;2023-05-27T06:54:56;13.43;;;7.70;;
11655;SDS011;5884;43.618;1.438;2023-05-27T06:57:23;15.87;;;7.90;;
11655;SDS011;5884;43.618;1.438;2023-05-27T06:59:50;14.73;;;7.83;;
11655;SDS011;5884;43.618;1.438;2023-05-27T07:02:17;16.97;;;8.40;;
11655;SDS011;5884;43.618;1.438;2023-05-27T07:04:45;10.93;;;7.40;;
11655;SDS011;5884;43.618;1.438;2023-05-27T07:07:14;11.83;;;7.30;;
11655;SDS011;5884;43.618;1.438;2023-05-27T07:09:41;12.00;;;8.03;;
11655;SDS011;5884;43.618;1.438;2023-05-27T07:12:09;15.30;;;7.97;;
11655;SDS011;5884;43.618;1.438;2023-05-27T07:14:36;15.23;;;7.83;;
11655;SDS011;5884;43.618;1.438;2023-05-27T07:17:03;10.10;;;7.50;;
11655;SDS011;5884;43.618;1.438;2023-05-27T07:19:31;15.83;;;8.20;;
11655;SDS011;5884;43.618;1.438;2023-05-27T07:21:58;10.87;;;7.63;;
11655;SDS011;5884;43.618;1.438;2023-05-27T07:24:27;16.77;;;7.47;;
11655;SDS011;5884;43.618;1.438;2023-05-27T07:26:54;14.13;;;7.47;;
11655;SDS011;5884;43.618;1.438;2023-05-27T07:29:22;15.27;;;7.40;;
11655;SDS011;5884;43.618;1.438;2023-05-27T07:31:49;13.87;;;7.40;;
11655;SDS011;5884;43.618;1.438;2023-05-27T07:34:16;18.87;;;8.00;;
11655;SDS011;5884;43.618;1.438;2023-05-27T07:36:45;13.93;;;7.93;;
11655;SDS011;5884;43.618;1.438;2023-05-27T07:39:13;12.07;;;7.60;;
11655;SDS011;5884;43.618;1.438;2023-05-27T07:41:41;11.70;;;7.67;;
11655;SDS011;5884;43.618;1.438;2023-05-27T07:44:09;15.53;;;8.00;;
11655;SDS011;5884;43.618;1.438;2023-05-27T07:46:36;25.13;;;11.73;;
11655;SDS011;5884;43.618;1.438;2023-05-27T07:49:03;31.10;;;14.90;;
11655;SDS011;5884;43.618;1.438;2023-05-27T07:51:31;17.90;;;10.53;;
11655;SDS011;5884;43.618;1.438;2023-05-27T07:53:58;24.40;;;11.43;;
11655;SDS011;5884;43.618;1.438;2023-05-27T07:56:26;23.87;;;11.20;;
11655;SDS011;5884;43.618;1.438;2023-05-27T07:58:54;18.87;;;10.37;;
11655;SDS011;5884;43.618;1.438;2023-05-27T08:01:22;22.37;;;11.10;;
11655;SDS011;5884;43.618;1.438;2023-05-27T08:03:50;33.43;;;18.00;;
11655;SDS011;5884;43.618;1.438;2023-05-27T08:06:17;34.63;;;18.17;;
11655;SDS011;5884;43.618;1.438;2023-05-27T08:08:44;33.37;;;18.37;;
11655;SDS011;5884;43.618;1.438;2023-05-27T08:11:12;36.20;;;22.20;;
11655;SDS011;5884;43.618;1.438;2023-05-27T08:13:40;36.53;;;21.33;;
11655;SDS011;5884;43.618;1.438;2023-05-27T08:16:08;35.40;;;18.87;;
11655;SDS011;5884;43.618;1.438;2023-05-27T08:18:36;31.47;;;16.30;;
11655;SDS011;5884;43.618;1.438;2023-05-27T08:21:03;29.30;;;17.77;;
11655;SDS011;5884;43.618;1.438;2023-05-27T08:23:31;25.63;;;15.20;;
11655;SDS011;5884;43.618;1.438;2023-05-27T08:25:58;27.93;;;14.27;;
11655;SDS011;5884;43.618;1.438;2023-05-27T08:28:26;30.13;;;17.70;;
11655;SDS011;5884;43.618;1.438;2023-05-27T08:30:53;25.57;;;13.57;;
11655;SDS011;5884;43.618;1.438;2023-05-27T08:33:22;27.07;;;16.13;;
11655;SDS011;5884;43.618;1.438;2023-05-27T08:35:49;22.93;;;12.73;;
11655;SDS011;5884;43.618;1.438;2023-05-27T08:38:17;15.97;;;8.77;;
11655;SDS011;5884;43.618;1.438;2023-05-27T08:40:44;20.77;;;8.77;;
11655;SDS011;5884;43.618;1.438;2023-05-27T08:43:11;17.03;;;8.27;;
11655;SDS011;5884;43.618;1.438;2023-05-27T08:45:39;10.63;;;7.07;;
11655;SDS011;5884;43.618;1.438;2023-05-27T08:48:08;9.80;;;6.17;;
11655;SDS011;5884;43.618;1.438;2023-05-27T08:50:37;14.67;;;5.70;;
11655;SDS011;5884;43.618;1.438;2023-05-27T08:53:04;9.37;;;5.07;;
11655;SDS011;5884;43.618;1.438;2023-05-27T08:55:33;9.40;;;6.00;;
11655;SDS011;5884;43.618;1.438;2023-05-27T08:58:05;17.10;;;5.60;;
11655;SDS011;5884;43.618;1.438;2023-05-27T09:00:34;15.53;;;5.67;;
11655;SDS011;5884;43.618;1.438;2023-05-27T09:03:01;13.27;;;5.50;;
11655;SDS011;5884;43.618;1.438;2023-05-27T09:05:29;8.00;;;5.20;;
11655;SDS011;5884;43.618;1.438;2023-05-27T09:07:58;14.40;;;5.20;;
11655;SDS011;5884;43.618;1.438;2023-05-27T09:10:34;8.73;;;5.00;;
11655;SDS011;5884;43.618;1.438;2023-05-27T09:13:02;13.83;;;4.77;;
11655;SDS011;5884;43.618;1.438;2023-05-27T09:15:30;13.20;;;5.10;;
11655;SDS011;5884;43.618;1.438;2023-05-27T09:17:58;12.27;;;5.27;;
11655;SDS011;5884;43.618;1.438;2023-05-27T09:20:25;6.87;;;4.73;;
11655;SDS011;5884;43.618;1.438;2023-05-27T09:22:56;9.83;;;4.87;;
11655;SDS011;5884;43.618;1.438;2023-05-27T09:25:26;9.47;;;4.87;;
11655;SDS011;5884;43.618;1.438;2023-05-27T09:27:53;12.67;;;5.17;;
11655;SDS011;5884;43.618;1.438;2023-05-27T09:30:22;7.57;;;4.40;;
11655;SDS011;5884;43.618;1.438;2023-05-27T09:32:59;8.40;;;4.80;;
11655;SDS011;5884;43.618;1.438;2023-05-27T09:35:28;12.20;;;4.83;;
11655;SDS011;5884;43.618;1.438;2023-05-27T09:38:05;16.47;;;4.97;;
11655;SDS011;5884;43.618;1.438;2023-05-27T09:40:35;10.50;;;4.60;;
11655;SDS011;5884;43.618;1.438;2023-05-27T09:43:02;10.07;;;4.83;;
11655;SDS011;5884;43.618;1.438;2023-05-27T09:45:30;10.13;;;4.30;;
11655;SDS011;5884;43.618;1.438;2023-05-27T09:47:58;10.90;;;4.63;;
11655;SDS011;5884;43.618;1.438;2023-05-27T09:50:28;13.13;;;5.13;;
11655;SDS011;5884;43.618;1.438;2023-05-27T09:52:57;8.77;;;4.33;;
11655;SDS011;5884;43.618;1.438;2023-05-27T09:55:28;7.23;;;4.20;;
11655;SDS011;5884;43.618;1.438;2023-05-27T09:57:55;7.83;;;4.60;;
11655;SDS011;5884;43.618;1.438;2023-05-27T10:00:23;6.73;;;4.40;;
11655;SDS011;5884;43.618;1.438;2023-05-27T10:02:53;9.40;;;4.67;;
11655;SDS011;5884;43.618;1.438;2023-05-27T10:05:22;11.07;;;4.43;;
11655;SDS011;5884;43.618;1.438;2023-05-27T10:07:50;9.13;;;4.20;;
11655;SDS011;5884;43.618;1.438;2023-05-27T10:10:18;9.23;;;4.67;;
11655;SDS011;5884;43.618;1.438;2023-05-27T10:12:48;8.20;;;4.10;;
11655;SDS011;5884;43.618;1.438;2023-05-27T10:15:22;10.50;;;4.17;;
11655;SDS011;5884;43.618;1.438;2023-05-27T10:17:53;13.17;;;4.40;;
11655;SDS011;5884;43.618;1.438;2023-05-27T10:20:29;10.30;;;4.50;;
11655;SDS011;5884;43.618;1.438;2023-05-27T10:22:57;9.87;;;4.33;;
11655;SDS011;5884;43.618;1.438;2023-05-27T10:25:44;7.13;;;3.90;;
11655;SDS011;5884;43.618;1.438;2023-05-27T10:28:24;10.70;;;3.80;;
11655;SDS011;5884;43.618;1.438;2023-05-27T10:31:03;8.67;;;3.63;;
11655;SDS011;5884;43.618;1.438;2023-05-27T10:33:33;6.90;;;3.90;;
11655;SDS011;5884;43.618;1.438;2023-05-27T10:36:03;10.43;;;4.17;;
11655;SDS011;5884;43.618;1.438;2023-05-27T10:38:35;8.37;;;4.00;;
11655;SDS011;5884;43.618;1.438;2023-05-27T10:41:04;10.00;;;3.73;;
11655;SDS011;5884;43.618;1.438;2023-05-27T10:43:34;7.97;;;3.40;;
11655;SDS011;5884;43.618;1.438;2023-05-27T10:46:03;7.97;;;3.43;;
11655;SDS011;5884;43.618;1.438;2023-05-27T10:48:32;7.90;;;3.67;;
11655;SDS011;5884;43.618;1.438;2023-05-27T10:51:00;6.10;;;3.40;;
11655;SDS011;5884;43.618;1.438;2023-05-27T10:53:27;5.47;;;3.57;;
11655;SDS011;5884;43.618;1.438;2023-05-27T10:55:57;8.57;;;3.70;;
11655;SDS011;5884;43.618;1.438;2023-05-27T10:58:25;8.40;;;3.90;;
11655;SDS011;5884;43.618;1.438;2023-05-27T11:00:55;8.80;;;3.77;;
11655;SDS011;5884;43.618;1.438;2023-05-27T11:03:23;10.80;;;4.23;;
11655;SDS011;5884;43.618;1.438;2023-05-27T11:06:02;11.87;;;3.70;;
11655;SDS011;5884;43.618;1.438;2023-05-27T11:08:31;7.18;;;3.53;;
11655;SDS011;5884;43.618;1.438;2023-05-27T11:11:00;9.25;;;3.60;;
11655;SDS011;5884;43.618;1.438;2023-05-27T11:13:30;7.20;;;3.22;;
11655;SDS011;5884;43.618;1.438;2023-05-27T11:16:00;9.57;;;3.60;;
11655;SDS011;5884;43.618;1.438;2023-05-27T11:18:38;7.33;;;3.60;;
11655;SDS011;5884;43.618;1.438;2023-05-27T11:21:07;7.50;;;3.60;;
11655;SDS011;5884;43.618;1.438;2023-05-27T11:23:36;6.67;;;3.57;;
11655;SDS011;5884;43.618;1.438;2023-05-27T11:26:15;8.17;;;3.53;;
11655;SDS011;5884;43.618;1.438;2023-05-27T11:28:50;9.40;;;3.80;;
11655;SDS011;5884;43.618;1.438;2023-05-27T11:31:21;7.07;;;3.80;;
11655;SDS011;5884;43.618;1.438;2023-05-27T11:33:54;11.80;;;4.43;;
11655;SDS011;5884;43.618;1.438;2023-05-27T11:36:26;7.30;;;4.05;;
11655;SDS011;5884;43.618;1.438;2023-05-27T11:38:57;8.83;;;4.03;;
11655;SDS011;5884;43.618;1.438;2023-05-27T11:41:27;9.35;;;4.50;;
11655;SDS011;5884;43.618;1.438;2023-05-27T11:43:56;15.82;;;4.82;;
11655;SDS011;5884;43.618;1.438;2023-05-27T11:46:34;14.05;;;5.05;;
11655;SDS011;5884;43.618;1.438;2023-05-27T11:49:03;6.85;;;4.63;;
11655;SDS011;5884;43.618;1.438;2023-05-27T11:51:33;7.68;;;4.13;;
11655;SDS011;5884;43.618;1.438;2023-05-27T11:54:00;10.27;;;4.75;;
11655;SDS011;5884;43.618;1.438;2023-05-27T11:56:28;7.47;;;3.92;;
11655;SDS011;5884;43.618;1.438;2023-05-27T11:58:56;8.57;;;4.03;;
11655;SDS011;5884;43.618;1.438;2023-05-27T12:01:23;5.07;;;3.70;;
11655;SDS011;5884;43.618;1.438;2023-05-27T12:03:52;9.27;;;3.88;;
11655;SDS011;5884;43.618;1.438;2023-05-27T12:06:20;7.88;;;3.88;;
11655;SDS011;5884;43.618;1.438;2023-05-27T12:08:47;9.43;;;4.20;;
11655;SDS011;5884;43.618;1.438;2023-05-27T12:11:14;10.38;;;3.92;;
11655;SDS011;5884;43.618;1.438;2023-05-27T12:13:42;10.13;;;4.25;;
11655;SDS011;5884;43.618;1.438;2023-05-27T12:16:09;10.95;;;4.53;;
11655;SDS011;5884;43.618;1.438;2023-05-27T12:18:37;7.18;;;3.53;;
11655;SDS011;5884;43.618;1.438;2023-05-27T12:21:07;10.75;;;4.15;;
11655;SDS011;5884;43.618;1.438;2023-05-27T12:23:35;10.18;;;3.83;;
11655;SDS011;5884;43.618;1.438;2023-05-27T12:26:02;6.03;;;3.92;;
11655;SDS011;5884;43.618;1.438;2023-05-27T12:28:29;9.55;;;3.90;;
11655;SDS011;5884;43.618;1.438;2023-05-27T12:30:57;7.40;;;3.60;;
11655;SDS011;5884;43.618;1.438;2023-05-27T12:33:24;10.88;;;4.13;;
11655;SDS011;5884;43.618;1.438;2023-05-27T12:35:51;7.20;;;3.78;;
11655;SDS011;5884;43.618;1.438;2023-05-27T12:38:20;8.10;;;4.10;;
11655;SDS011;5884;43.618;1.438;2023-05-27T12:40:47;9.07;;;3.75;;
11655;SDS011;5884;43.618;1.438;2023-05-27T12:43:14;7.20;;;3.95;;
11655;SDS011;5884;43.618;1.438;2023-05-27T12:45:42;7.13;;;4.07;;
11655;SDS011;5884;43.618;1.438;2023-05-27T12:48:10;9.77;;;3.58;;
11655;SDS011;5884;43.618;1.438;2023-05-27T12:50:37;7.13;;;3.78;;
11655;SDS011;5884;43.618;1.438;2023-05-27T12:53:04;10.63;;;3.88;;
11655;SDS011;5884;43.618;1.438;2023-05-27T12:55:34;6.57;;;3.50;;
11655;SDS011;5884;43.618;1.438;2023-05-27T12:58:03;11.48;;;4.30;;
11655;SDS011;5884;43.618;1.438;2023-05-27T13:00:31;10.32;;;3.70;;
11655;SDS011;5884;43.618;1.438;2023-05-27T13:02:59;9.73;;;4.07;;
11655;SDS011;5884;43.618;1.438;2023-05-27T13:05:27;6.75;;;3.70;;
11655;SDS011;5884;43.618;1.438;2023-05-27T13:07:55;9.30;;;3.58;;
11655;SDS011;5884;43.618;1.438;2023-05-27T13:10:24;12.60;;;3.65;;
11655;SDS011;5884;43.618;1.438;2023-05-27T13:12:54;9.60;;;3.65;;
11655;SDS011;5884;43.618;1.438;2023-05-27T13:15:22;9.18;;;3.63;;
11655;SDS011;5884;43.618;1.438;2023-05-27T13:17:50;6.90;;;3.50;;
11655;SDS011;5884;43.618;1.438;2023-05-27T13:20:18;9.15;;;3.72;;
11655;SDS011;5884;43.618;1.438;2023-05-27T13:22:47;8.80;;;3.65;;
11655;SDS011;5884;43.618;1.438;2023-05-27T13:25:15;8.88;;;3.70;;
11655;SDS011;5884;43.618;1.438;2023-05-27T13:27:42;11.25;;;3.38;;
11655;SDS011;5884;43.618;1.438;2023-05-27T13:30:13;7.18;;;3.45;;
11655;SDS011;5884;43.618;1.438;2023-05-27T13:32:41;13.38;;;3.63;;
11655;SDS011;5884;43.618;1.438;2023-05-27T13:35:09;10.90;;;3.63;;
11655;SDS011;5884;43.618;1.438;2023-05-27T13:37:37;8.48;;;3.67;;
11655;SDS011;5884;43.618;1.438;2023-05-27T13:40:05;7.40;;;3.60;;
11655;SDS011;5884;43.618;1.438;2023-05-27T13:42:34;9.40;;;3.40;;
11655;SDS011;5884;43.618;1.438;2023-05-27T13:45:01;10.40;;;3.60;;
11655;SDS011;5884;43.618;1.438;2023-05-27T13:47:31;7.03;;;3.67;;
11655;SDS011;5884;43.618;1.438;2023-05-27T13:49:58;10.00;;;3.67;;
11655;SDS011;5884;43.618;1.438;2023-05-27T13:52:25;10.85;;;3.80;;
11655;SDS011;5884;43.618;1.438;2023-05-27T13:54:53;9.43;;;3.78;;
11655;SDS011;5884;43.618;1.438;2023-05-27T13:57:20;7.20;;;3.85;;
11655;SDS011;5884;43.618;1.438;2023-05-27T13:59:47;11.95;;;3.35;;
11655;SDS011;5884;43.618;1.438;2023-05-27T14:02:15;8.23;;;3.55;;
11655;SDS011;5884;43.618;1.438;2023-05-27T14:04:43;7.32;;;3.47;;
11655;SDS011;5884;43.618;1.438;2023-05-27T14:07:11;12.35;;;3.90;;
11655;SDS011;5884;43.618;1.438;2023-05-27T14:09:38;9.38;;;3.63;;
11655;SDS011;5884;43.618;1.438;2023-05-27T14:12:06;6.28;;;3.47;;
11655;SDS011;5884;43.618;1.438;2023-05-27T14:14:33;7.15;;;3.58;;
11655;SDS011;5884;43.618;1.438;2023-05-27T14:17:01;11.02;;;3.25;;
11655;SDS011;5884;43.618;1.438;2023-05-27T14:19:28;10.32;;;3.42;;
11655;SDS011;5884;43.618;1.438;2023-05-27T14:21:57;8.38;;;3.35;;
11655;SDS011;5884;43.618;1.438;2023-05-27T14:24:24;9.52;;;3.40;;
11655;SDS011;5884;43.618;1.438;2023-05-27T14:26:51;7.22;;;3.35;;
11655;SDS011;5884;43.618;1.438;2023-05-27T14:29:18;9.45;;;3.05;;
11655;SDS011;5884;43.618;1.438;2023-05-27T14:31:46;5.60;;;3.47;;
11655;SDS011;5884;43.618;1.438;2023-05-27T14:34:13;8.57;;;3.55;;
11655;SDS011;5884;43.618;1.438;2023-05-27T14:36:40;14.68;;;3.40;;
11655;SDS011;5884;43.618;1.438;2023-05-27T14:39:09;9.65;;;3.35;;
11655;SDS011;5884;43.618;1.438;2023-05-27T14:41:36;7.13;;;3.47;;
11655;SDS011;5884;43.618;1.438;2023-05-27T14:44:03;10.43;;;3.60;;
11655;SDS011;5884;43.618;1.438;2023-05-27T14:46:31;7.20;;;3.47;;
11655;SDS011;5884;43.618;1.438;2023-05-27T14:48:58;9.48;;;3.47;;
11655;SDS011;5884;43.618;1.438;2023-05-27T14:51:25;6.32;;;3.47;;
11655;SDS011;5884;43.618;1.438;2023-05-27T14:53:52;9.55;;;3.58;;
11655;SDS011;5884;43.618;1.438;2023-05-27T14:56:21;6.72;;;3.55;;
11655;SDS011;5884;43.618;1.438;2023-05-27T14:58:49;11.13;;;3.30;;